KHMN/HMN METAR and TAF weather

Enter ICAO airport designator
Station Type Date Time Source
KHMN METAR 2019/06/16 11:58 UTC NOAA

KHMN 161158Z AUTO 01006KT 10SM CLR 16/00 A2999 RMK AO2 SLP088 T01611002 10252 20161 52013 $


Station Type Date Time Source
KHMN Decoded METAR 2019/06/16 11:58 UTC NOAA

Holloman Air Force Base, NM, United States (KHMN) 32-51N 106-06W 1248M
Jun 16, 2019 - 07:58 AM EDT / 2019.06.16 1158 UTC
Wind: from the N (010 degrees) at 7 MPH (6 KT):0
Visibility: 10 mile(s):0
Sky conditions: clear
Temperature: 61.0 F (16.1 C)
Dew Point: 31.6 F (-0.2 C)
Relative Humidity: 32%
Pressure (altimeter): 29.99 in. Hg (1015 hPa)
Pressure tendency: 0.04 inches (1.3 hPa) higher than three hours ago
ob: KHMN 161158Z AUTO 01006KT 10SM CLR 16/00 A2999 RMK AO2 SLP088 T01611002 10252 20161 52013
cycle: 12

Station Type Date Time Source
KHMN TAF 2019/06/16 09:06 UTC NOAA

TAF KHMN 160901Z 1609/1715 13009KT 9999 FEW150 QNH2992INS
BECMG 1617/1618 23012KT 9999 SKC QNH2984INS
BECMG 1702/1703 VRB06KT 9999 FEW120 QNH2987INS TX35/1621Z TN17/1612Z

Example: see airport list